Osterville, MA (02655)

2:12 PM EDT on July 04, 2015 (GMT -0400)
Centerville | | Change Station
CLOSE
Current Station
Personal Weather Station
Location: Massachusetts, MA
Elevation: 56 ft
Nearby Weather Stations

Elev 56 ft 41.67 °N, 70.37 °W | Updated 9 seconds ago

Mostly Cloudy
Mostly Cloudy
70.0 °F
Feels Like 70.0 °F
N
4.0
Wind Variable Wind from ENE
Gusts 5.0 mph

Today
High -- | Low -- °F
--% Chance of Precip.
Yesterday
High -- | Low -- °F
Precip. -- in
5:12 AM 8:19 PM
Waning Gibbous, 91% visible
Pressure 29.97 in
Visibility 10.0 miles
Clouds Overcast 9500 ft
Dew Point 69 °F
Humidity 99%
Rainfall 0.00 in
Snow Depth Not available.
UV 3 out of 12
Pollen 1.90 out of 12
Air Quality Not available.
Flu Activity Not available.
METAR KHYA 041756Z VRB05KT 10SM OVC095 21/11 A2996 RMK AO2 SLP147 T02060111 10217 20189 58007

More Conditions Fewer Conditions

Pressure 29.97 in
Visibility 10.0 miles
Clouds Overcast 9500 ft
Dew Point 69 °F
Humidity 99%
Rainfall 0.00 in
Snow Depth Not available.
UV 3 out of 12
Pollen 1.90 out of 12
Air Quality Not available.
Flu Activity Not available.
METAR KHYA 041756Z VRB05KT 10SM OVC095 21/11 A2996 RMK AO2 SLP147 T02060111 10217 20189 58007

More Conditions Fewer Conditions

10-Day Weather Forecast

×

Almanac

Astronomy

Jul. 04, 2015 Rise Set
Actual Time
Civil Twilight
Nautical Twilight
Astronomical Twilight
Moon
Length of Visible Light
Length of Day
Tomorrow will be .
, % of the Moon is Illuminated

Today's Extremes

State Highs State Lows

Community

WunderPhotos

Upload Photos

1,835,030 photos uploaded!

WunderBlogs® & News

Nearby

Air Quality

  Air Quality AQ Index Pollutant
Not available.

Snow Depth

Station Depth Elevation

Earthquake Activity

City Distance Mag. Time & Date
Minimum magnitude displayed is 2.5.

Coastal Water Temperatures

Place Temperature

Stations

Nearby Weather Stations

Station Location Temp. Windchill Dew Point Humidity Wind Precip. Elev Updated Type